Time;durP1;ratioP1;P1;durP2;ratioP2;P2;SDS_P1;SDS_P2;PMS_P1;PMS_P2;Temp;Humidity;BMP_temperature;BMP_pressure;BME280_temperature;BME280_humidity;BME280_pressure;Samples;Min_cycle;Max_cycle;Signal;HPM_P1;HPM_P2
2020/12/12 00:00:06;;;;;;;205.10;53.77;;;;;;;-0.36;100.00;97783.31;2073124;28;20323;-80
2020/12/12 00:01:07;;;;;;;186.57;52.33;;;;;;;-0.44;100.00;97773.31;2082456;28;20239;-80
2020/12/12 00:02:08;;;;;;;195.80;54.70;;;;;;;-0.40;100.00;97779.63;2081400;28;20223;-80
2020/12/12 00:03:10;;;;;;;154.32;52.47;;;;;;;-0.50;100.00;97774.34;2080521;28;20250;-80
2020/12/12 00:04:11;;;;;;;179.30;53.80;;;;;;;-0.49;100.00;97770.69;2072474;28;20694;-80
2020/12/12 00:05:12;;;;;;;156.40;51.83;;;;;;;-0.40;100.00;97779.63;2071984;28;20682;-80
2020/12/12 00:06:13;;;;;;;168.07;53.43;;;;;;;-0.31;100.00;97777.31;2080727;28;20607;-79
2020/12/12 00:07:13;;;;;;;178.07;54.78;;;;;;;-0.39;100.00;97783.03;2081266;28;20227;-79
2020/12/12 00:08:15;;;;;;;228.93;55.20;;;;;;;-0.40;100.00;97776.22;2080855;28;20289;-80
2020/12/12 00:09:15;;;;;;;192.48;54.50;;;;;;;-0.60;100.00;97759.38;2080677;28;20274;-80
2020/12/12 00:10:17;;;;;;;304.03;56.50;;;;;;;-0.53;100.00;97779.31;2081465;28;20269;-80
2020/12/12 00:11:18;;;;;;;239.75;55.50;;;;;;;-0.55;100.00;97784.00;2080480;28;20220;-80
2020/12/12 00:12:19;;;;;;;191.07;54.72;;;;;;;-0.53;100.00;97776.69;2080495;28;20227;-80
2020/12/12 00:13:20;;;;;;;188.20;54.17;;;;;;;-0.51;100.00;97780.63;2081315;28;20238;-80
2020/12/12 00:14:21;;;;;;;168.47;52.63;;;;;;;-0.43;100.00;97785.41;2081193;28;20311;-80
2020/12/12 00:15:22;;;;;;;175.85;52.60;;;;;;;-0.44;100.00;97780.38;2089273;28;20693;-80
2020/12/12 00:16:23;;;;;;;168.93;51.13;;;;;;;-0.51;100.00;97779.84;2089013;28;20638;-80
2020/12/12 00:17:24;;;;;;;150.65;50.40;;;;;;;-0.52;100.00;97783.50;2088830;28;20231;-80
2020/12/12 00:18:26;;;;;;;153.33;51.63;;;;;;;-0.53;100.00;97782.72;2089593;28;20231;-80
2020/12/12 00:19:27;;;;;;;200.00;53.85;;;;;;;-0.53;100.00;97787.16;2089479;28;20325;-80
2020/12/12 00:20:28;;;;;;;249.00;106.07;;;;;;;-0.42;100.00;97780.94;2088742;28;20223;-80
2020/12/12 00:21:29;;;;;;;260.25;105.45;;;;;;;-0.21;100.00;97787.81;2088829;28;20218;-80
2020/12/12 00:22:30;;;;;;;238.53;76.20;;;;;;;-0.21;100.00;97768.69;2088251;28;20719;-80
2020/12/12 00:23:32;;;;;;;198.52;59.47;;;;;;;-0.11;100.00;97781.81;2088790;28;20226;-79
2020/12/12 00:24:33;;;;;;;190.55;54.55;;;;;;;-0.15;100.00;97784.19;2088661;28;20226;-79
2020/12/12 00:25:34;;;;;;;213.52;56.35;;;;;;;-0.26;100.00;97773.91;2096938;28;20249;-79
2020/12/12 00:26:35;;;;;;;194.23;55.60;;;;;;;-0.23;100.00;97789.91;2105292;28;20237;-79
2020/12/12 00:27:36;;;;;;;188.90;63.22;;;;;;;-0.20;100.00;97770.25;2081093;28;20223;-80
2020/12/12 00:28:37;;;;;;;190.67;54.63;;;;;;;-0.18;100.00;97782.06;2089182;28;20223;-80
2020/12/12 00:29:38;;;;;;;236.25;59.33;;;;;;;-0.23;100.00;97789.13;2089431;28;20287;-80
2020/12/12 00:30:40;;;;;;;167.87;54.80;;;;;;;-0.33;100.00;97787.25;2088213;28;20234;-80
2020/12/12 00:31:41;;;;;;;210.85;56.33;;;;;;;-0.35;100.00;97789.31;2088620;28;20219;-80
2020/12/12 00:32:42;;;;;;;196.18;55.95;;;;;;;-0.39;100.00;97788.28;2088574;28;28396;-79
2020/12/12 00:33:43;;;;;;;160.98;54.47;;;;;;;-0.44;100.00;97789.03;2088552;28;20241;-80
2020/12/12 00:34:45;;;;;;;165.05;53.22;;;;;;;-0.32;100.00;97789.63;2075121;28;20224;-79
2020/12/12 00:35:45;;;;;;;195.73;53.67;;;;;;;-0.25;100.00;97788.59;2072199;28;20681;-80
2020/12/12 00:36:46;;;;;;;194.47;53.20;;;;;;;-0.26;100.00;97793.06;2087881;28;20336;-79
2020/12/12 00:37:48;;;;;;;168.52;51.72;;;;;;;-0.30;100.00;97790.16;2088197;28;20241;-79
2020/12/12 00:38:48;;;;;;;197.98;54.53;;;;;;;-0.33;100.00;97790.66;2080291;28;20725;-80
2020/12/12 00:39:50;;;;;;;161.90;52.17;;;;;;;-0.24;100.00;97788.34;2080572;28;20587;-80
2020/12/12 00:40:57;;;;;;;163.35;51.60;;;;;;;-0.28;100.00;97795.13;2080352;28;20706;-80
2020/12/12 00:41:57;;;;;;;256.98;56.25;;;;;;;-0.37;100.00;97788.81;2088042;28;20691;-79
2020/12/12 00:42:59;;;;;;;218.80;54.30;;;;;;;-0.44;100.00;97781.16;2080360;28;20636;-79
2020/12/12 00:44:00;;;;;;;197.65;54.97;;;;;;;-0.46;100.00;97790.34;2080368;28;20235;-79
2020/12/12 00:45:01;;;;;;;222.27;56.87;;;;;;;-0.52;100.00;97780.88;2080085;28;20247;-79
2020/12/12 00:46:02;;;;;;;169.77;54.90;;;;;;;-0.49;100.00;97790.84;2080299;28;20226;-79
2020/12/12 00:47:04;;;;;;;256.20;56.43;;;;;;;-0.62;100.00;97774.53;2080883;28;20258;-80
2020/12/12 00:48:04;;;;;;;231.63;58.10;;;;;;;-0.51;100.00;97790.34;2080206;28;20612;-79
2020/12/12 00:49:07;;;;;;;336.97;61.30;;;;;;;-0.60;100.00;97777.72;2080165;28;20251;-79
2020/12/12 00:50:08;;;;;;;215.75;54.67;;;;;;;-0.60;100.00;97785.59;2080050;28;20246;-80
2020/12/12 00:51:09;;;;;;;252.30;57.00;;;;;;;-0.58;100.00;97801.03;2080495;28;20230;-79
2020/12/12 00:52:10;;;;;;;254.85;58.10;;;;;;;-0.63;100.00;97793.94;2078826;28;20819;-79
2020/12/12 00:53:12;;;;;;;356.75;59.92;;;;;;;-0.65;100.00;97796.03;2078857;28;20751;-79
2020/12/12 00:54:13;;;;;;;228.43;55.75;;;;;;;-0.68;100.00;97786.06;2078951;28;20227;-79
2020/12/12 00:55:14;;;;;;;194.43;55.50;;;;;;;-0.63;100.00;97806.22;2080182;28;20226;-79
2020/12/12 00:56:15;;;;;;;341.75;60.17;;;;;;;-0.75;100.00;97784.72;2080207;28;20231;-80
2020/12/12 00:57:18;;;;;;;247.43;57.37;;;;;;;-0.63;100.00;97793.94;2073063;28;20789;-79
2020/12/12 00:58:18;;;;;;;187.32;55.40;;;;;;;-0.60;100.00;97790.81;2080234;28;20250;-80
2020/12/12 00:59:19;;;;;;;201.70;55.83;;;;;;;-0.48;100.00;97795.84;2080919;28;20701;-80
2020/12/12 01:00:20;;;;;;;230.90;55.60;;;;;;;-0.40;100.00;97794.56;2080149;28;20233;-79
2020/12/12 01:01:22;;;;;;;204.73;55.87;;;;;;;-0.55;100.00;97773.53;2080606;28;20229;-79
2020/12/12 01:02:22;;;;;;;282.88;57.88;;;;;;;-0.50;100.00;97794.53;2087971;28;20219;-79
2020/12/12 01:03:24;;;;;;;220.00;56.30;;;;;;;-0.53;100.00;97777.47;2088673;28;20234;-79
2020/12/12 01:04:25;;;;;;;177.35;53.22;;;;;;;-0.42;100.00;97788.81;2088348;28;20247;-79
2020/12/12 01:05:27;;;;;;;256.83;56.40;;;;;;;-0.43;100.00;97792.47;2089394;28;20231;-79
2020/12/12 01:06:27;;;;;;;302.63;59.25;;;;;;;-0.44;100.00;97790.88;2089110;28;20234;-79
2020/12/12 01:07:29;;;;;;;209.97;57.27;;;;;;;-0.49;100.00;97783.00;2088984;28;20250;-79
2020/12/12 01:08:30;;;;;;;174.27;53.13;;;;;;;-0.51;100.00;97785.09;2088977;28;20276;-79
2020/12/12 01:09:31;;;;;;;160.32;55.38;;;;;;;-0.59;100.00;97774.06;2088944;28;20637;-79
2020/12/12 01:10:32;;;;;;;312.23;57.83;;;;;;;-0.66;100.00;97757.00;2088215;28;20219;-79
2020/12/12 01:11:33;;;;;;;249.87;56.80;;;;;;;-0.58;100.00;97770.38;2088376;28;20219;-79
2020/12/12 01:12:34;;;;;;;194.63;56.25;;;;;;;-0.53;100.00;97769.59;2088284;28;20264;-79
2020/12/12 01:13:35;;;;;;;183.97;56.83;;;;;;;-0.55;100.00;97768.28;2080188;28;20274;-79
2020/12/12 01:14:36;;;;;;;215.48;57.92;;;;;;;-0.65;100.00;97756.72;2080093;28;20227;-79
2020/12/12 01:15:37;;;;;;;219.00;56.63;;;;;;;-0.59;100.00;97768.03;2096179;28;20309;-79
2020/12/12 01:16:38;;;;;;;232.65;56.58;;;;;;;-0.56;100.00;97775.38;2087653;28;20233;-79
2020/12/12 01:17:39;;;;;;;298.87;58.03;;;;;;;-0.44;100.00;97777.75;2079333;28;20302;-79
2020/12/12 01:18:40;;;;;;;226.82;58.42;;;;;;;-0.41;100.00;97774.66;2088171;28;20285;-79
2020/12/12 01:19:42;;;;;;;205.37;58.30;;;;;;;-0.48;100.00;97774.09;2088132;28;20230;-79
2020/12/12 01:20:43;;;;;;;178.13;54.10;;;;;;;-0.45;100.00;97776.19;2088228;28;20268;-79
2020/12/12 01:21:44;;;;;;;247.50;58.47;;;;;;;-0.55;100.00;97778.78;2089131;28;20222;-79
2020/12/12 01:22:45;;;;;;;232.10;55.35;;;;;;;-0.50;100.00;97779.59;2089113;28;20223;-79
2020/12/12 01:23:46;;;;;;;255.33;58.27;;;;;;;-0.54;100.00;97781.13;2088122;28;20681;-79
2020/12/12 01:24:47;;;;;;;190.45;54.22;;;;;;;-0.57;100.00;97782.44;2088032;28;20559;-79
2020/12/12 01:25:48;;;;;;;215.80;57.90;;;;;;;-0.57;100.00;97776.41;2088164;28;20299;-79
2020/12/12 01:26:49;;;;;;;174.27;53.45;;;;;;;-0.73;100.00;97762.47;2088109;28;20223;-79
2020/12/12 01:27:50;;;;;;;250.83;58.50;;;;;;;-0.63;100.00;97786.06;2088255;28;20223;-79
2020/12/12 01:28:51;;;;;;;216.15;57.50;;;;;;;-0.68;100.00;97780.03;2088996;28;20222;-79
2020/12/12 01:29:52;;;;;;;218.90;60.63;;;;;;;-0.76;100.00;97767.44;2087671;28;20237;-79
2020/12/12 01:30:53;;;;;;;217.63;58.25;;;;;;;-0.71;100.00;97785.75;2088149;28;20230;-79
2020/12/12 01:31:54;;;;;;;204.27;59.13;;;;;;;-0.71;100.00;97780.53;2088848;28;20222;-80
2020/12/12 01:32:55;;;;;;;187.20;55.92;;;;;;;-0.69;100.00;97781.88;2088601;28;20288;-79
2020/12/12 01:33:56;;;;;;;245.77;60.73;;;;;;;-0.64;100.00;97789.72;2088752;28;20689;-79
2020/12/12 01:34:58;;;;;;;255.77;60.20;;;;;;;-0.69;100.00;97768.00;2088106;28;20681;-79
2020/12/12 01:35:59;;;;;;;336.70;58.55;;;;;;;-0.65;100.00;97788.16;2088096;28;20219;-79
2020/12/12 01:37:00;;;;;;;174.10;54.08;;;;;;;-0.64;100.00;97791.56;2088182;28;20219;-79
2020/12/12 01:38:01;;;;;;;210.07;52.33;;;;;;;-0.64;100.00;97786.31;2087992;28;20306;-79
2020/12/12 01:39:02;;;;;;;168.38;52.63;;;;;;;-0.46;100.00;97787.72;2087950;28;20226;-79
2020/12/12 01:40:03;;;;;;;165.37;52.23;;;;;;;-0.43;100.00;97792.47;2079648;28;20302;-79
2020/12/12 01:41:04;;;;;;;201.57;54.30;;;;;;;-0.48;100.00;97793.22;2088035;28;20731;-79
2020/12/12 01:42:06;;;;;;;141.63;50.87;;;;;;;-0.55;100.00;97791.88;2088112;28;20249;-79
2020/12/12 01:43:08;;;;;;;184.90;54.65;;;;;;;-0.50;100.00;97791.91;2088121;28;20457;-79
2020/12/12 01:44:09;;;;;;;353.90;58.40;;;;;;;-0.58;100.00;97795.78;2071515;28;20709;-79
2020/12/12 01:45:10;;;;;;;200.40;53.33;;;;;;;-0.70;100.00;97775.03;2071811;28;20220;-79
2020/12/12 01:46:12;;;;;;;170.70;53.10;;;;;;;-0.72;100.00;97787.59;2079832;28;20235;-79
2020/12/12 01:47:13;;;;;;;157.00;51.85;;;;;;;-0.74;100.00;97784.44;2080509;28;20224;-79
2020/12/12 01:48:15;;;;;;;139.43;51.53;;;;;;;-0.69;100.00;97781.88;2079755;28;20220;-79
2020/12/12 01:49:15;;;;;;;173.50;52.45;;;;;;;-0.57;100.00;97776.41;2079921;28;20970;-79
2020/12/12 01:50:18;;;;;;;154.60;51.20;;;;;;;-0.51;100.00;97774.63;2079744;28;20726;-80
2020/12/12 01:51:20;;;;;;;230.77;57.28;;;;;;;-0.50;100.00;97786.66;2079853;28;20693;-80
2020/12/12 01:52:22;;;;;;;247.80;54.42;;;;;;;-0.51;100.00;97772.00;2079683;28;20562;-79
2020/12/12 01:53:26;;;;;;;180.75;53.35;;;;;;;-0.46;100.00;97782.47;2079536;28;20313;-79
2020/12/12 01:54:27;;;;;;;284.58;57.40;;;;;;;-0.59;100.00;97766.19;2079631;28;22481;-79
2020/12/12 01:55:28;;;;;;;356.70;57.60;;;;;;;-0.62;100.00;97771.94;2071282;28;20250;-80
2020/12/12 01:56:30;;;;;;;202.45;54.60;;;;;;;-0.78;100.00;97751.97;2079693;28;20243;-79
2020/12/12 01:57:30;;;;;;;162.55;53.10;;;;;;;-0.75;100.00;97767.16;2080491;28;20223;-80
2020/12/12 01:58:32;;;;;;;227.70;53.23;;;;;;;-0.76;100.00;97762.97;2080586;28;20219;-79
2020/12/12 01:59:33;;;;;;;250.18;54.47;;;;;;;-0.80;100.00;97771.56;2079676;28;20634;-80
2020/12/12 02:00:34;;;;;;;221.33;54.53;;;;;;;-0.82;100.00;97769.22;2071605;28;20297;-81
2020/12/12 02:01:39;;;;;;;233.30;55.35;;;;;;;-0.87;100.00;97771.78;2071635;28;20231;-81
2020/12/12 02:02:42;;;;;;;179.98;52.45;;;;;;;-0.80;100.00;97776.81;2071566;28;20587;-81
2020/12/12 02:03:43;;;;;;;176.75;51.90;;;;;;;-0.81;100.00;97764.75;2079809;28;20227;-79
2020/12/12 02:04:48;;;;;;;152.20;48.33;;;;;;;-0.90;100.00;97764.47;2080469;28;20319;-79
2020/12/12 02:05:50;;;;;;;212.57;55.30;;;;;;;-0.81;100.00;97775.25;2079749;28;20228;-79
2020/12/12 02:06:51;;;;;;;209.45;54.47;;;;;;;-0.76;100.00;97770.81;2079642;28;20318;-79
2020/12/12 02:07:52;;;;;;;237.68;54.13;;;;;;;-0.57;100.00;97766.72;2079921;28;20673;-81
2020/12/12 02:08:53;;;;;;;207.33;53.40;;;;;;;-0.52;100.00;97768.59;2080370;28;20629;-79
2020/12/12 02:09:54;;;;;;;185.88;53.05;;;;;;;-0.62;100.00;97764.06;2079514;28;20692;-79
2020/12/12 02:10:56;;;;;;;200.80;52.77;;;;;;;-0.67;100.00;97756.22;2079536;28;20596;-81
2020/12/12 02:11:57;;;;;;;283.38;57.55;;;;;;;-0.59;100.00;97763.59;2079533;28;20227;-78
2020/12/12 02:12:59;;;;;;;309.70;56.47;;;;;;;-0.55;100.00;97760.44;2072264;28;20731;-79
2020/12/12 02:14:00;;;;;;;297.42;55.42;;;;;;;-0.56;100.00;97759.66;2079592;28;20693;-79
2020/12/12 02:15:01;;;;;;;287.13;56.92;;;;;;;-0.72;100.00;97748.31;2080239;28;20630;-78
2020/12/12 02:16:02;;;;;;;416.67;59.77;;;;;;;-0.69;100.00;97752.28;2079594;28;20227;-79
2020/12/12 02:17:03;;;;;;;321.73;55.75;;;;;;;-0.76;100.00;97751.72;2071409;28;20247;-79
2020/12/12 02:18:06;;;;;;;260.85;53.90;;;;;;;-0.79;100.00;97753.00;2079685;28;20223;-79
2020/12/12 02:19:07;;;;;;;252.15;52.38;;;;;;;-0.77;100.00;97740.44;2080014;28;20701;-79
2020/12/12 02:20:08;;;;;;;203.67;50.50;;;;;;;-0.71;100.00;97756.97;2079201;28;20628;-79
2020/12/12 02:21:10;;;;;;;246.65;51.03;;;;;;;-0.58;100.00;97754.69;2079602;28;20276;-79
2020/12/12 02:22:12;;;;;;;222.73;51.20;;;;;;;-0.47;100.00;97759.94;2079106;28;20261;-79
2020/12/12 02:23:12;;;;;;;286.35;53.88;;;;;;;-0.57;100.00;97751.00;2071377;28;20816;-79
2020/12/12 02:24:14;;;;;;;173.87;49.60;;;;;;;-0.64;100.00;97760.13;2079652;28;20616;-79
2020/12/12 02:25:14;;;;;;;294.15;54.78;;;;;;;-0.64;100.00;97766.16;2079123;28;20224;-80
2020/12/12 02:26:16;;;;;;;256.17;52.43;;;;;;;-0.69;100.00;97749.66;2079626;28;20215;-79
2020/12/12 02:27:16;;;;;;;240.55;52.67;;;;;;;-0.70;100.00;97758.53;2079582;28;20215;-80
2020/12/12 02:28:20;;;;;;;571.77;61.50;;;;;;;-0.67;100.00;97766.69;2079494;28;20696;-79
2020/12/12 02:29:21;;;;;;;415.90;57.05;;;;;;;-0.72;100.00;97758.00;2080337;28;20675;-79
2020/12/12 02:30:22;;;;;;;400.40;57.43;;;;;;;-0.73;100.00;97759.84;2079934;28;20227;-79
2020/12/12 02:31:24;;;;;;;243.52;52.88;;;;;;;-0.69;100.00;97745.22;2079453;28;20234;-79
2020/12/12 02:32:25;;;;;;;265.55;55.20;;;;;;;-0.59;100.00;97753.09;2079412;28;20642;-79
2020/12/12 02:33:26;;;;;;;358.00;56.13;;;;;;;-0.57;100.00;97760.69;2080202;28;20744;-79
2020/12/12 02:34:27;;;;;;;229.60;54.07;;;;;;;-0.59;100.00;97766.19;2079578;28;20704;-80
2020/12/12 02:35:28;;;;;;;223.07;54.15;;;;;;;-0.67;100.00;97750.19;2079581;28;20227;-79
2020/12/12 02:36:33;;;;;;;266.08;56.33;;;;;;;-0.62;100.00;97758.84;2080276;28;20223;-79
2020/12/12 02:37:35;;;;;;;276.13;52.90;;;;;;;-0.61;100.00;97755.19;2079529;28;20223;-79
2020/12/12 02:38:37;;;;;;;214.18;53.50;;;;;;;-0.60;100.00;97759.38;2071058;28;20227;-79
2020/12/12 02:39:37;;;;;;;278.73;53.25;;;;;;;-0.55;100.00;97753.38;2079228;28;20231;-79
2020/12/12 02:40:39;;;;;;;254.67;50.17;;;;;;;-0.51;100.00;97748.41;2079489;28;20261;-80
2020/12/12 02:41:39;;;;;;;238.20;49.90;;;;;;;-0.51;100.00;97737.94;2071265;28;20338;-79
2020/12/12 02:42:41;;;;;;;227.53;51.80;;;;;;;-0.61;100.00;97725.56;2079737;28;20851;-80
2020/12/12 02:43:41;;;;;;;171.60;48.92;;;;;;;-0.51;100.00;97746.59;2079288;28;21868;-79
2020/12/12 02:44:42;;;;;;;194.87;48.90;;;;;;;-0.57;100.00;97740.53;2079565;28;20242;-79
2020/12/12 02:45:45;;;;;;;212.88;48.75;;;;;;;-0.48;100.00;97747.91;2080179;28;20665;-78
2020/12/12 02:46:46;;;;;;;179.60;47.72;;;;;;;-0.48;100.00;97751.31;2080178;28;20582;-78
2020/12/12 02:47:48;;;;;;;150.37;48.13;;;;;;;-0.54;100.00;97739.22;2079445;28;20326;-79
2020/12/12 02:48:50;;;;;;;236.82;49.78;;;;;;;-0.49;100.00;97747.13;2071432;28;20615;-79
2020/12/12 02:50:07;;;;;;;206.13;47.17;;;;;;;-0.57;100.00;97744.97;2079458;28;20223;-78
2020/12/12 02:51:08;;;;;;;184.85;46.67;;;;;;;-0.58;100.00;97752.06;2078948;28;20256;-79
2020/12/12 02:52:09;;;;;;;300.27;51.13;;;;;;;-0.63;100.00;97748.63;2079338;28;20223;-79
2020/12/12 02:53:11;;;;;;;235.63;48.63;;;;;;;-0.54;100.00;97738.44;2080321;28;20223;-79
2020/12/12 02:54:12;;;;;;;240.07;48.58;;;;;;;-0.65;100.00;97732.38;2079414;28;20227;-79
2020/12/12 02:55:13;;;;;;;167.17;47.40;;;;;;;-0.64;100.00;97739.19;2079453;28;20239;-80
2020/12/12 02:56:14;;;;;;;175.35;48.00;;;;;;;-0.70;100.00;97733.13;2080679;28;20277;-79
2020/12/12 02:57:16;;;;;;;233.02;49.05;;;;;;;-0.67;100.00;97740.50;2080250;28;20219;-79
2020/12/12 02:58:16;;;;;;;281.58;50.47;;;;;;;-0.64;100.00;97745.22;2080603;28;20227;-79
2020/12/12 02:59:18;;;;;;;211.43;49.07;;;;;;;-0.82;100.00;97719.47;2079259;28;20234;-78
2020/12/12 03:00:21;;;;;;;195.45;47.70;;;;;;;-0.69;100.00;97737.34;2079753;28;20230;-79
2020/12/12 03:01:22;;;;;;;165.63;47.22;;;;;;;-0.71;100.00;97731.56;2079226;28;20255;-79
2020/12/12 03:02:23;;;;;;;293.80;49.88;;;;;;;-0.82;100.00;97716.84;2071301;28;20231;-80
2020/12/12 03:03:25;;;;;;;503.47;57.80;;;;;;;-0.71;100.00;97734.19;2071170;28;20235;-79
2020/12/12 03:04:25;;;;;;;206.90;51.78;;;;;;;-0.72;100.00;97726.59;2079548;28;20701;-79
2020/12/12 03:05:27;;;;;;;312.03;52.57;;;;;;;-0.76;100.00;97723.69;2079139;28;20262;-79
2020/12/12 03:06:27;;;;;;;172.27;49.20;;;;;;;-0.71;100.00;97728.94;2071637;28;20228;-80
2020/12/12 03:07:29;;;;;;;268.70;52.07;;;;;;;-0.66;100.00;97730.81;2079325;28;20306;-80
2020/12/12 03:08:30;;;;;;;196.57;49.80;;;;;;;-0.55;100.00;97736.88;2079305;28;20280;-80
2020/12/12 03:09:33;;;;;;;147.85;47.95;;;;;;;-0.67;100.00;97731.84;2079485;28;20224;-79
2020/12/12 03:10:34;;;;;;;171.80;48.05;;;;;;;-0.74;100.00;97721.59;2071551;28;20224;-80
2020/12/12 03:11:35;;;;;;;168.23;48.90;;;;;;;-0.64;100.00;97734.72;2071334;28;20220;-79
2020/12/12 03:12:37;;;;;;;224.32;50.65;;;;;;;-0.59;100.00;97739.22;2079430;28;20744;-79
2020/12/12 03:13:39;;;;;;;486.95;57.97;;;;;;;-0.58;100.00;97736.34;2079736;28;20231;-79
2020/12/12 03:14:39;;;;;;;163.85;47.83;;;;;;;-0.64;100.00;97731.34;2080078;28;20719;-79
2020/12/12 03:15:40;;;;;;;175.87;48.40;;;;;;;-0.60;100.00;97738.44;2079996;28;20642;-79
2020/12/12 03:16:41;;;;;;;209.02;49.88;;;;;;;-0.59;100.00;97742.63;2079401;28;20620;-79
2020/12/12 03:17:42;;;;;;;303.40;51.67;;;;;;;-0.67;100.00;97730.03;2070675;28;20305;-79
2020/12/12 03:18:43;;;;;;;182.80;49.72;;;;;;;-0.59;100.00;97734.75;2079448;28;20216;-79
2020/12/12 03:19:44;;;;;;;207.03;49.73;;;;;;;-0.57;100.00;97732.69;2079513;28;20273;-79
2020/12/12 03:20:45;;;;;;;254.75;51.42;;;;;;;-0.51;100.00;97743.19;2079388;28;20211;-79
2020/12/12 03:21:46;;;;;;;195.77;49.47;;;;;;;-0.39;100.00;97747.16;2079392;28;20294;-79
2020/12/12 03:22:47;;;;;;;260.52;50.28;;;;;;;-0.32;100.00;97746.91;2079473;28;20659;-79
2020/12/12 03:23:49;;;;;;;228.47;50.63;;;;;;;-0.36;100.00;97746.63;2079286;28;20297;-79
2020/12/12 03:24:50;;;;;;;244.15;50.88;;;;;;;-0.39;100.00;97741.13;2079474;28;20314;-79
2020/12/12 03:25:51;;;;;;;217.80;50.37;;;;;;;-0.45;100.00;97742.91;2079352;28;20223;-79
2020/12/12 03:26:52;;;;;;;380.25;53.03;;;;;;;-0.46;100.00;97738.72;2079046;28;20230;-79
2020/12/12 03:27:53;;;;;;;288.30;50.07;;;;;;;-0.46;100.00;97746.59;2078994;28;20302;-79
2020/12/12 03:28:53;;;;;;;224.55;49.47;;;;;;;-0.44;100.00;97748.94;2079241;28;20227;-79
2020/12/12 03:29:55;;;;;;;209.57;48.10;;;;;;;-0.44;100.00;97743.72;2071295;28;20224;-79
2020/12/12 03:30:55;;;;;;;329.83;51.58;;;;;;;-0.47;100.00;97741.63;2079354;28;20281;-79
2020/12/12 03:31:57;;;;;;;171.73;48.03;;;;;;;-0.50;100.00;97739.50;2079129;28;20787;-79
2020/12/12 03:32:57;;;;;;;158.70;48.90;;;;;;;-0.48;100.00;97742.66;2079239;28;20231;-79
2020/12/12 03:33:59;;;;;;;166.63;48.40;;;;;;;-0.50;100.00;97747.38;2087639;28;20353;-79
2020/12/12 03:35:00;;;;;;;186.95;46.63;;;;;;;-0.51;100.00;97737.94;2080092;28;20231;-79
2020/12/12 03:36:02;;;;;;;275.47;50.67;;;;;;;-0.49;100.00;97741.88;2079300;28;20227;-79
2020/12/12 03:37:04;;;;;;;217.75;50.75;;;;;;;-0.41;100.00;97737.97;2079343;28;20855;-79
2020/12/12 03:38:05;;;;;;;265.25;50.55;;;;;;;-0.42;100.00;97742.44;2080273;28;20223;-79
2020/12/12 03:39:06;;;;;;;160.63;45.70;;;;;;;-0.42;100.00;97731.16;2080195;28;20678;-79
2020/12/12 03:40:08;;;;;;;246.88;51.40;;;;;;;-0.39;100.00;97738.50;2079811;28;20231;-79
2020/12/12 03:41:08;;;;;;;215.60;50.78;;;;;;;-0.49;100.00;97728.78;2081569;28;20691;-79
2020/12/12 03:42:10;;;;;;;162.83;48.00;;;;;;;-0.61;100.00;97710.66;2080783;28;20227;-79
2020/12/12 03:43:10;;;;;;;174.13;47.97;;;;;;;-0.37;100.00;97731.16;2072667;28;20227;-79
2020/12/12 03:44:12;;;;;;;177.80;48.73;;;;;;;-0.40;100.00;97723.81;2072579;28;21894;-79
2020/12/12 03:45:12;;;;;;;220.27;48.90;;;;;;;-0.51;100.00;97722.22;2080820;28;20293;-79
2020/12/12 03:46:13;;;;;;;143.93;46.10;;;;;;;-0.58;100.00;97718.00;2081418;28;20273;-79
2020/12/12 03:47:14;;;;;;;141.70;46.78;;;;;;;-0.55;100.00;97721.94;2081430;28;20281;-79
2020/12/12 03:48:15;;;;;;;195.17;47.90;;;;;;;-0.60;100.00;97714.88;2081600;28;20223;-79
2020/12/12 03:49:16;;;;;;;188.50;50.13;;;;;;;-0.62;100.00;97713.53;2081501;28;20625;-79
2020/12/12 03:50:17;;;;;;;183.23;49.70;;;;;;;-0.59;100.00;97710.41;2080698;28;20223;-79
2020/12/12 03:51:18;;;;;;;181.10;49.13;;;;;;;-0.67;100.00;97695.19;2081118;28;20277;-79
2020/12/12 03:52:19;;;;;;;154.50;47.77;;;;;;;-0.56;100.00;97717.75;2081688;28;20269;-79
2020/12/12 03:53:21;;;;;;;168.68;49.08;;;;;;;-0.56;100.00;97715.13;2080572;28;20258;-79
2020/12/12 03:54:23;;;;;;;213.75;52.25;;;;;;;-0.48;100.00;97716.47;2080655;28;20293;-79
2020/12/12 03:55:23;;;;;;;152.43;48.75;;;;;;;-0.55;100.00;97692.34;2081004;28;20219;-79
2020/12/12 03:56:25;;;;;;;219.03;52.50;;;;;;;-0.48;100.00;97711.22;2081402;28;20251;-79
2020/12/12 03:57:25;;;;;;;188.98;51.08;;;;;;;-0.46;100.00;97709.13;2081424;28;20234;-79
2020/12/12 03:58:27;;;;;;;195.57;51.10;;;;;;;-0.54;100.00;97699.94;2080611;28;20743;-79
2020/12/12 03:59:27;;;;;;;195.15;51.20;;;;;;;-0.50;100.00;97710.69;2072840;28;20752;-79
2020/12/12 04:00:28;;;;;;;152.90;49.27;;;;;;;-0.53;100.00;97705.97;2080680;28;20633;-79
2020/12/12 04:01:30;;;;;;;231.65;52.05;;;;;;;-0.50;100.00;97713.31;2081590;28;20569;-79
2020/12/12 04:02:32;;;;;;;291.08;55.78;;;;;;;-0.59;100.00;97697.31;2081358;28;20301;-79
2020/12/12 04:03:32;;;;;;;213.63;51.22;;;;;;;-0.44;100.00;97697.34;2080684;28;20834;-79
2020/12/12 04:04:34;;;;;;;189.27;51.33;;;;;;;-0.43;100.00;97709.41;2072494;28;20658;-79
2020/12/12 04:05:34;;;;;;;240.90;49.75;;;;;;;-0.48;100.00;97706.78;2080525;28;20220;-79
2020/12/12 04:06:35;;;;;;;184.83;50.07;;;;;;;-0.44;100.00;97723.53;2081403;28;20302;-79
2020/12/12 04:07:36;;;;;;;174.30;50.58;;;;;;;-0.61;100.00;97705.44;2081349;28;20238;-79
2020/12/12 04:08:37;;;;;;;231.80;51.80;;;;;;;-0.43;100.00;97719.91;2081012;28;20234;-78
2020/12/12 04:09:39;;;;;;;247.60;54.90;;;;;;;-0.33;100.00;97713.91;2080577;28;20220;-78
2020/12/12 04:10:40;;;;;;;184.82;52.00;;;;;;;-0.33;100.00;97714.69;2080421;28;20319;-79
2020/12/12 04:11:41;;;;;;;194.90;50.35;;;;;;;-0.26;100.00;97716.25;2080458;28;20227;-79
2020/12/12 04:12:42;;;;;;;168.07;50.63;;;;;;;-0.37;100.00;97715.44;2080710;28;20239;-79
2020/12/12 04:13:43;;;;;;;257.88;52.90;;;;;;;-0.40;100.00;97708.88;2081343;28;20623;-79
2020/12/12 04:14:44;;;;;;;151.13;47.60;;;;;;;-0.38;100.00;97714.66;2080667;28;20250;-78
2020/12/12 04:15:45;;;;;;;169.30;48.92;;;;;;;-0.35;100.00;97716.78;2080703;28;20557;-78
2020/12/12 04:16:46;;;;;;;196.87;50.77;;;;;;;-0.44;100.00;97712.28;2081366;28;20247;-79
2020/12/12 04:17:47;;;;;;;151.35;46.72;;;;;;;-0.23;100.00;97721.78;2080270;28;20267;-79
2020/12/12 04:18:48;;;;;;;239.17;51.80;;;;;;;-0.23;100.00;97724.41;2080518;28;20216;-79
2020/12/12 04:19:48;;;;;;;203.35;50.83;;;;;;;-0.22;100.00;97720.72;2080546;28;20224;-78
2020/12/12 04:20:50;;;;;;;171.87;50.20;;;;;;;-0.28;100.00;97716.50;2072243;28;20585;-78
2020/12/12 04:21:50;;;;;;;194.30;49.47;;;;;;;-0.38;100.00;97695.53;2080518;28;20230;-79
2020/12/12 04:22:52;;;;;;;173.43;49.90;;;;;;;-0.26;100.00;97708.38;2080516;28;20230;-79
2020/12/12 04:23:52;;;;;;;151.23;49.20;;;;;;;-0.28;100.00;97708.66;2080171;28;20234;-79
2020/12/12 04:24:54;;;;;;;189.90;49.63;;;;;;;-0.40;100.00;97692.38;2081302;28;20306;-78
2020/12/12 04:25:55;;;;;;;181.00;46.88;;;;;;;-0.33;100.00;97719.91;2080144;28;20577;-78
2020/12/12 04:26:56;;;;;;;200.13;48.97;;;;;;;-0.38;100.00;97709.41;2072158;28;20224;-78
2020/12/12 04:27:57;;;;;;;189.75;48.95;;;;;;;-0.42;100.00;97712.81;2080330;28;20234;-78
2020/12/12 04:28:58;;;;;;;189.33;49.37;;;;;;;-0.46;100.00;97706.50;2080003;28;20701;-79
2020/12/12 04:29:59;;;;;;;153.90;47.28;;;;;;;-0.40;100.00;97706.28;2080383;28;20317;-79
2020/12/12 04:31:00;;;;;;;145.73;47.40;;;;;;;-0.37;100.00;97697.88;2079982;28;20243;-79
2020/12/12 04:32:01;;;;;;;149.77;46.97;;;;;;;-0.39;100.00;97680.84;2080505;28;20674;-78
2020/12/12 04:33:02;;;;;;;143.80;47.87;;;;;;;-0.25;100.00;97699.50;2081108;28;20613;-78
2020/12/12 04:34:03;;;;;;;131.10;46.53;;;;;;;-0.37;100.00;97689.25;2080306;28;20751;-78
2020/12/12 04:35:04;;;;;;;154.60;48.23;;;;;;;-0.24;100.00;97698.44;2080455;28;20657;-78